createdAt,value
2019-02-02T00:02:09.713Z,9.80
2019-02-02T00:04:38.515Z,9.70
2019-02-02T00:07:08.245Z,9.80
2019-02-02T00:09:36.738Z,9.80
2019-02-02T00:12:05.474Z,9.90
2019-02-02T00:14:34.227Z,9.80
2019-02-02T00:17:02.835Z,9.70
2019-02-02T00:19:31.335Z,9.60
2019-02-02T00:22:00.107Z,9.80
2019-02-02T00:24:28.663Z,9.80
2019-02-02T00:26:57.396Z,9.90
2019-02-02T00:29:25.900Z,9.80
2019-02-02T00:31:54.544Z,9.90
2019-02-02T00:34:23.045Z,10.00
2019-02-02T00:36:51.801Z,9.80
2019-02-02T00:39:20.305Z,9.80
2019-02-02T00:41:49.047Z,9.90
2019-02-02T00:44:17.583Z,9.90
2019-02-02T00:46:45.997Z,9.80
2019-02-02T00:49:14.451Z,9.90
2019-02-02T00:51:43.022Z,9.90
2019-02-02T00:54:11.759Z,9.90
2019-02-02T00:56:40.369Z,9.90
2019-02-02T00:59:09.181Z,9.90
2019-02-02T01:01:37.750Z,10.00
2019-02-02T01:04:06.586Z,9.90
2019-02-02T01:06:35.204Z,9.90
2019-02-02T01:09:09.605Z,9.90
2019-02-02T01:11:38.506Z,9.80
2019-02-02T01:14:07.156Z,9.70
2019-02-02T01:16:35.780Z,9.70
2019-02-02T01:19:05.429Z,9.80
2019-02-02T01:21:34.186Z,9.70
2019-02-02T01:24:02.820Z,9.80
2019-02-02T01:26:31.511Z,9.90
2019-02-02T01:29:00.209Z,9.80
2019-02-02T01:31:28.920Z,9.90
2019-02-02T01:33:57.600Z,9.90
2019-02-02T01:36:26.259Z,9.80
2019-02-02T01:38:54.850Z,9.90
2019-02-02T01:41:23.543Z,9.90
2019-02-02T01:43:52.974Z,9.70
2019-02-02T01:46:21.580Z,9.80
2019-02-02T01:48:50.057Z,9.80
2019-02-02T01:51:18.782Z,9.90
2019-02-02T01:53:47.663Z,9.70
2019-02-02T01:56:16.287Z,9.80
2019-02-02T01:58:45.144Z,9.80
2019-02-02T02:01:13.984Z,9.80
2019-02-02T02:03:45.190Z,9.90
2019-02-02T02:06:14.144Z,9.70
2019-02-02T02:08:42.915Z,9.90
2019-02-02T02:11:11.706Z,10.00
2019-02-02T02:13:40.437Z,9.80
2019-02-02T02:16:09.162Z,9.70
2019-02-02T02:18:39.060Z,9.80
2019-02-02T02:21:07.807Z,9.90
2019-02-02T02:23:36.486Z,10.00
2019-02-02T02:26:05.177Z,10.10
2019-02-02T02:28:33.801Z,9.90
2019-02-02T02:31:02.496Z,9.90
2019-02-02T02:33:31.161Z,9.90
2019-02-02T02:35:59.876Z,9.90
2019-02-02T02:38:28.631Z,10.10
2019-02-02T02:40:57.479Z,9.90
2019-02-02T02:43:26.322Z,9.90
2019-02-02T02:45:54.981Z,9.80
2019-02-02T02:48:23.750Z,9.90
2019-02-02T02:50:52.544Z,10.00
2019-02-02T02:53:20.911Z,9.90
2019-02-02T02:55:49.642Z,9.90
2019-02-02T02:58:18.326Z,9.90
2019-02-02T03:00:47.018Z,9.90
2019-02-02T03:03:15.621Z,10.00
2019-02-02T03:05:44.426Z,10.00
2019-02-02T03:08:13.077Z,10.00
2019-02-02T03:10:41.800Z,9.90
2019-02-02T03:13:10.604Z,10.10
2019-02-02T03:15:39.390Z,10.10
2019-02-02T03:18:08.281Z,9.90
2019-02-02T03:20:36.986Z,10.00
2019-02-02T03:23:05.861Z,9.90
2019-02-02T03:25:34.634Z,10.10
2019-02-02T03:28:03.804Z,10.10
2019-02-02T03:30:32.632Z,10.00
2019-02-02T03:33:01.410Z,10.00
2019-02-02T03:35:30.174Z,10.10
2019-02-02T03:37:58.920Z,10.00
2019-02-02T03:40:27.596Z,10.10
2019-02-02T03:43:01.372Z,10.00
2019-02-02T03:45:40.363Z,10.00
2019-02-02T03:48:13.388Z,10.00
2019-02-02T03:50:43.025Z,10.00
2019-02-02T03:53:11.659Z,9.90
2019-02-02T03:55:40.227Z,10.00
2019-02-02T03:58:09.303Z,10.10
2019-02-02T04:00:38.142Z,10.00
2019-02-02T04:03:06.816Z,10.10
2019-02-02T04:05:35.384Z,9.90
2019-02-02T04:08:04.255Z,10.10
2019-02-02T04:10:33.054Z,10.00
2019-02-02T04:13:01.884Z,10.20
2019-02-02T04:15:31.844Z,10.00
2019-02-02T04:18:02.038Z,10.00
2019-02-02T04:20:31.059Z,10.00
2019-02-02T04:23:02.954Z,10.00
2019-02-02T04:25:33.266Z,10.00
2019-02-02T04:28:02.081Z,10.00
2019-02-02T04:30:33.129Z,10.00
2019-02-02T04:33:02.107Z,10.10
2019-02-02T04:35:30.781Z,10.00
2019-02-02T04:37:59.631Z,10.20
2019-02-02T04:40:28.454Z,10.00
2019-02-02T04:42:57.259Z,10.00
2019-02-02T04:45:26.084Z,10.20
2019-02-02T04:47:54.912Z,10.20
2019-02-02T04:50:23.725Z,10.10
2019-02-02T04:52:52.563Z,10.10
2019-02-02T04:55:24.081Z,10.10
2019-02-02T04:57:55.113Z,10.00
2019-02-02T05:00:27.556Z,10.10
2019-02-02T05:02:56.460Z,9.90
2019-02-02T05:05:25.444Z,10.10
2019-02-02T05:07:56.332Z,10.10
2019-02-02T05:10:25.439Z,10.10
2019-02-02T05:12:54.317Z,10.10
2019-02-02T05:15:23.114Z,10.10
2019-02-02T05:17:53.033Z,10.10
2019-02-02T05:20:21.986Z,10.20
2019-02-02T05:22:51.089Z,10.00
2019-02-02T05:25:19.870Z,10.00
2019-02-02T05:27:48.716Z,9.90
2019-02-02T05:30:20.201Z,9.90
2019-02-02T05:32:49.528Z,9.90
2019-02-02T05:35:19.428Z,9.80
2019-02-02T05:37:48.270Z,9.90
2019-02-02T05:40:17.806Z,9.90
2019-02-02T05:42:46.787Z,10.00
2019-02-02T05:45:17.255Z,10.00
2019-02-02T05:47:46.751Z,9.80
2019-02-02T05:50:17.332Z,9.60
2019-02-02T05:52:47.199Z,9.70
2019-02-02T05:55:16.504Z,9.70
2019-02-02T05:57:45.347Z,14.20
2019-02-02T06:00:40.704Z,9.80
2019-02-02T06:03:09.512Z,9.70
2019-02-02T06:05:38.293Z,9.70
2019-02-02T06:08:07.173Z,9.60
2019-02-02T06:10:35.975Z,9.60
2019-02-02T06:13:04.970Z,11.00
2019-02-02T06:15:33.737Z,9.50
2019-02-02T06:18:02.515Z,9.40
2019-02-02T06:20:31.203Z,9.30
2019-02-02T06:23:00.083Z,9.40
2019-02-02T06:25:28.883Z,9.40
2019-02-02T06:27:59.661Z,9.20
2019-02-02T06:32:52.826Z,9.20
2019-02-02T06:35:21.684Z,9.10
2019-02-02T06:37:50.575Z,9.20
2019-02-02T06:40:21.858Z,9.10
2019-02-02T06:42:50.809Z,9.10
2019-02-02T06:45:31.153Z,9.00
2019-02-02T06:48:01.025Z,9.00
2019-02-02T06:50:29.885Z,8.90
2019-02-02T06:52:58.987Z,9.10
2019-02-02T06:55:27.787Z,9.10
2019-02-02T06:57:56.641Z,8.90
2019-02-02T07:00:26.492Z,8.80
2019-02-02T07:02:55.610Z,8.70
2019-02-02T07:05:24.399Z,8.60
2019-02-02T07:07:53.211Z,8.50
2019-02-02T07:10:25.809Z,8.50
2019-02-02T07:12:55.719Z,8.50
2019-02-02T07:15:26.585Z,8.40
2019-02-02T07:17:55.466Z,8.50
2019-02-02T07:20:24.139Z,8.50
2019-02-02T07:22:52.982Z,8.40
2019-02-02T07:25:22.016Z,8.30
2019-02-02T07:27:50.719Z,8.10
2019-02-02T07:30:28.296Z,8.30
2019-02-02T07:32:51.364Z,8.10
2019-02-02T07:35:20.250Z,8.00
2019-02-02T07:37:49.043Z,8.00
2019-02-02T07:40:17.942Z,7.90
2019-02-02T07:42:46.757Z,7.70
2019-02-02T07:45:18.069Z,7.80
2019-02-02T07:47:46.973Z,7.80
2019-02-02T07:50:16.955Z,7.90
2019-02-02T07:52:45.921Z,7.60
2019-02-02T07:55:16.008Z,7.60
2019-02-02T07:57:44.976Z,7.80
2019-02-02T08:00:19.212Z,7.40
2019-02-02T08:02:48.064Z,7.60
2019-02-02T08:05:16.911Z,7.40
2019-02-02T08:07:45.628Z,7.50
2019-02-02T08:10:14.699Z,7.60
2019-02-02T08:12:43.394Z,7.60
2019-02-02T08:15:15.138Z,7.60
2019-02-02T08:17:43.914Z,7.40
2019-02-02T08:20:13.095Z,7.60
2019-02-02T08:22:41.789Z,7.90
2019-02-02T08:25:12.022Z,7.80
2019-02-02T08:27:40.843Z,7.80
2019-02-02T08:30:13.228Z,7.80
2019-02-02T08:32:43.024Z,8.00
2019-02-02T08:35:11.825Z,8.00
2019-02-02T08:37:40.715Z,8.10
2019-02-02T08:40:11.083Z,8.10
2019-02-02T08:42:40.733Z,8.20
2019-02-02T08:45:10.267Z,8.40
2019-02-02T08:47:39.015Z,8.30
2019-02-02T08:50:14.907Z,8.30
2019-02-02T08:52:43.796Z,8.50
2019-02-02T08:55:12.757Z,8.30
2019-02-02T08:57:41.442Z,8.40
2019-02-02T09:00:13.684Z,8.30
2019-02-02T09:02:42.683Z,8.20
2019-02-02T09:05:12.359Z,8.30
2019-02-02T09:07:41.042Z,8.30
2019-02-02T09:10:13.138Z,8.40
2019-02-02T09:12:41.928Z,8.60
2019-02-02T09:15:11.570Z,8.50
2019-02-02T09:17:41.167Z,8.80
2019-02-02T09:20:11.116Z,8.70
2019-02-02T09:22:40.891Z,8.80
2019-02-02T09:25:11.521Z,9.00
2019-02-02T09:27:40.187Z,9.00
2019-02-02T09:30:26.206Z,8.90
2019-02-02T09:32:55.011Z,8.90
2019-02-02T09:35:23.826Z,8.90
2019-02-02T09:37:52.647Z,9.10
2019-02-02T09:40:21.612Z,9.00
2019-02-02T09:42:50.494Z,9.20
2019-02-02T09:45:19.648Z,9.10
2019-02-02T09:47:48.842Z,9.20
2019-02-02T09:50:20.076Z,9.30
2019-02-02T09:52:48.946Z,9.20
2019-02-02T09:55:19.240Z,9.40
2019-02-02T09:57:48.213Z,9.50
2019-02-02T10:00:19.628Z,9.50
2019-02-02T10:02:48.540Z,9.50
2019-02-02T10:05:19.224Z,9.40
2019-02-02T10:07:48.002Z,9.50
2019-02-02T10:10:21.657Z,9.50
2019-02-02T10:12:50.459Z,9.50
2019-02-02T10:15:19.523Z,9.70
2019-02-02T10:17:49.799Z,9.70
2019-02-02T10:20:23.286Z,9.80
2019-02-02T10:22:52.287Z,9.90
2019-02-02T10:25:23.324Z,9.80
